Merced, CA

10:07 AM PDT en Octubre 31, 2014 (GMT -0700)
Merced Municipal-Macready | Change Station
CLOSE
Current Station
Aeropuerto
Location: Merced,
Altura: 154 ft
Estaciones meteorológicas cercanas

Alt 154 ft 37.28 °N, 120.51 °W | Updated 14 minutes ago

Despejado
Despejado
64 ° F
Sensación térmica 64 ° F
N
5
Viento Variable Viento desde SO

Hoy
Alta -- | Baja -- ° F
--% Posibilidad de precipitaciones
Ayer
Alta -- | Baja -- ° F
Precip. -- pul
7:25 AM 6:05 PM
Cuarto creciente, 57% visible
Presión 29.89 pul
Visibilidad 7.0 Millas
Nubes Despejado
Punto de rocío 50 ° F
Humedad 60%
Precipitaciones 0.00 pul
Espesor de la nieve No disponible.
UV 2 de una escala de 12
Polen 1.70 de una escala de 12
Calidad del aire No disponible.
Flu Activity No disponible.
METAR KMCE 311653Z AUTO 22004KT 7SM CLR 18/10 A2989 RMK AO2 SLP121 T01780100

More Conditions Fewer Conditions

Presión 29.89 pul
Visibilidad 7.0 Millas
Nubes Despejado
Punto de rocío 50 ° F
Humedad 60%
Precipitaciones 0.00 pul
Espesor de la nieve No disponible.
UV 2 de una escala de 12
Polen 1.70 de una escala de 12
Calidad del aire No disponible.
Flu Activity No disponible.
METAR KMCE 311653Z AUTO 22004KT 7SM CLR 18/10 A2989 RMK AO2 SLP121 T01780100

More Conditions Fewer Conditions

10-Day Weather Forecast

Almanac

Astronomía

Oct. 31, 2014 Salida Puesta
Hora real
Crepúsculo civil
Crepúsculo náutico
Crepúsculo astronómico
Luna
Horas de luz
Horas de luz
Tomorrow will be .
, % of the Moon is Illuminated

Extremos de hoy

Máximos del estado Bajos del estado

Community

WunderPhotos

Upload Photos

1,766,660 ¡fotos cargadas!

WunderBlogs® & News

Nearby

Calidad del aire

  Calidad del aire Índice AQ Contaminante
Not available.

Grosos de nieve

Estación Profundido Altura

Actividad de terremotos

Ciudad Distance Mag. Tiempo y dato
Magnitud mínima muestra es 2,5.

Temperaturas de aguas costeras

Lugar Temperatura

Estaciones meteorológicas cercanas